Terminal Aerodrome Forecast
Issued by NWS

Home | Current Version | Previous Version | Text Only | Print | Product List | Glossary On
Versions: 1 2 3 4 5 6 7 8 9 10 11 12 13 14
000
FTUS43 KLSX 032334
TAFCPS
TAF
KCPS 032334Z 0400/0424 29012KT P6SM OVC030
     FM040600 29009KT P6SM BKN035
     FM041000 29009KT P6SM SCT035
     FM041900 26007KT P6SM SKC=

USA.gov is the U.S. government's official web portal to all federal, state and local government web resources and services.